San Francisco, CA (94110)

3:15 PM PST on December 07, 2016 (GMT -0800)
| | Change Station

Elev -9999 ft 0.00 °N, 0.00 °E | Updated

Rain
Rain
49 °F
Feels Like 49 °F
N
9
Wind Variable Wind from East
Gusts mph

Today
High -- | Low -- °F
--% Chance of Precip.
Yesterday
High -- | Low -- °F
Precip. -- in
Pressure 30.13 in
Visibility 10.0 miles
Clouds Mostly Cloudy 5000 ft
Mostly Cloudy 6500 ft
Overcast 8000 ft
Dew Point 39 °F
Humidity 68%
Rainfall --
Snow Depth Not available.
7:12 AM 4:50 PM
First Quarter, 57% visible
METAR KSFO 072256Z 10006KT 10SM -RA BKN050 BKN065 OVC080 10/02 A3013 RMK AO2 RAE04B20 SLP203 P0000 T01000022 $
Pressure 30.13 in
Visibility 10.0 miles
Clouds Mostly Cloudy 5000 ft
Mostly Cloudy 6500 ft
Overcast 8000 ft
Dew Point 39 °F
Humidity 68%
Rainfall --
Snow Depth Not available.
7:12 AM 4:50 PM
First Quarter, 57% visible
METAR KSFO 072256Z 10006KT 10SM -RA BKN050 BKN065 OVC080 10/02 A3013 RMK AO2 RAE04B20 SLP203 P0000 T01000022 $

10-Day Weather Forecast

Almanac

Astronomy

Dec. 07, 2016 Rise Set
Actual Time
Civil Twilight
Nautical Twilight
Astronomical Twilight
Moon
Length of Visible Light
Length of Day
Tomorrow will be .
, % of the Moon is Illuminated

Today's Extremes

State Highs State Lows

Community

WunderPhotos

Upload Photos

1,956,216 photos uploaded!

WunderBlog® & News

Nearby

Air Quality

  Air Quality AQ Index Pollutant
Not available.

Snow Depth

Station Depth Elevation

Earthquake Activity

City Distance Mag. Time & Date
Minimum magnitude displayed is 2.5.

Coastal Water Temperatures

Place Temperature

Stations

Nearby Weather Stations

Station Location Temp. Windchill Dew Point Humidity Wind Precip. Elev Updated Type
                   

Watches & Warnings

There are currently no watches in effect.